createdAt,value
2022-11-16T00:01:57.275Z,96793.94
2022-11-16T00:04:25.337Z,96792.91
2022-11-16T00:06:53.274Z,96790.72
2022-11-16T00:09:24.102Z,96797.75
2022-11-16T00:11:53.882Z,96790.50
2022-11-16T00:14:24.518Z,96793.47
2022-11-16T00:16:52.783Z,96788.88
2022-11-16T00:19:20.873Z,96798.03
2022-11-16T00:21:48.781Z,96795.63
2022-11-16T00:24:17.725Z,96800.22
2022-11-16T00:26:45.935Z,96802.91
2022-11-16T00:29:16.099Z,96798.63
2022-11-16T00:31:46.000Z,96804.28
2022-11-16T00:34:14.164Z,96801.06
2022-11-16T00:36:42.221Z,96812.63
2022-11-16T00:39:12.856Z,96809.13
2022-11-16T00:41:41.084Z,96805.94
2022-11-16T00:44:09.162Z,96806.72
2022-11-16T00:46:37.041Z,96808.09
2022-11-16T00:49:07.248Z,96817.25
2022-11-16T00:51:36.088Z,96815.56
2022-11-16T00:54:05.333Z,96817.00
2022-11-16T00:56:33.154Z,96812.19
2022-11-16T00:59:01.176Z,96813.56
2022-11-16T01:01:29.303Z,96813.28
2022-11-16T01:03:57.264Z,96812.22
2022-11-16T01:06:26.445Z,96808.69
2022-11-16T01:08:54.424Z,96799.56
2022-11-16T01:11:51.288Z,96797.16
2022-11-16T01:14:19.103Z,96793.66
2022-11-16T01:16:50.227Z,96789.91
2022-11-16T01:19:18.150Z,96787.97
2022-11-16T01:21:47.472Z,96772.91
2022-11-16T01:24:15.612Z,96779.94
2022-11-16T01:26:43.475Z,96775.59
2022-11-16T01:29:11.409Z,96774.50
2022-11-16T01:31:39.172Z,96767.81
2022-11-16T01:34:07.020Z,96762.13
2022-11-16T01:36:36.730Z,96754.88
2022-11-16T01:39:06.616Z,96752.47
2022-11-16T01:41:34.552Z,96760.28
2022-11-16T01:44:04.723Z,96766.47
2022-11-16T01:46:32.922Z,96761.94
2022-11-16T01:49:04.798Z,96760.06
2022-11-16T01:51:34.575Z,96751.19
2022-11-16T01:54:04.604Z,96735.59
2022-11-16T01:56:37.535Z,96741.78
2022-11-16T01:59:06.847Z,96735.06
2022-11-16T02:01:34.815Z,96735.06
2022-11-16T02:04:02.708Z,96735.59
2022-11-16T02:06:35.084Z,96734.78
2022-11-16T02:09:35.300Z,96720.53
2022-11-16T02:12:15.868Z,96724.31
2022-11-16T02:15:02.539Z,96726.19
2022-11-16T02:17:39.997Z,96728.59
2022-11-16T02:20:36.065Z,96726.19
2022-11-16T02:23:25.822Z,96731.84
2022-11-16T02:26:05.964Z,96729.72
2022-11-16T02:28:45.246Z,96732.41
2022-11-16T02:31:17.764Z,96718.22
2022-11-16T02:33:52.158Z,96713.91
2022-11-16T02:36:23.509Z,96717.16
2022-11-16T02:38:58.092Z,96706.69
2022-11-16T02:41:28.327Z,96711.25
2022-11-16T02:44:02.078Z,96706.41
2022-11-16T02:46:37.260Z,96716.38
2022-11-16T02:49:08.929Z,96721.47
2022-11-16T02:51:40.053Z,96715.81
2022-11-16T02:54:13.052Z,96723.03
2022-11-16T02:56:45.116Z,96732.38
2022-11-16T02:59:17.440Z,96730.25
2022-11-16T03:01:51.819Z,96729.16
2022-11-16T03:04:25.998Z,96733.50
2022-11-16T03:06:56.314Z,96737.28
2022-11-16T03:09:30.023Z,96729.78
2022-11-16T03:12:01.259Z,96737.31
2022-11-16T03:14:34.770Z,96725.72
2022-11-16T03:17:06.913Z,96722.78
2022-11-16T03:19:38.870Z,96728.69
2022-11-16T03:22:11.757Z,96728.41
2022-11-16T03:24:40.272Z,96724.91
2022-11-16T03:27:18.200Z,96711.91
2022-11-16T03:29:54.994Z,96713.31
2022-11-16T03:32:29.492Z,96712.22
2022-11-16T03:35:01.521Z,96719.13
2022-11-16T03:37:30.789Z,96717.03
2022-11-16T03:40:01.158Z,96721.91
2022-11-16T03:42:29.734Z,96711.13
2022-11-16T03:44:57.977Z,96718.94
2022-11-16T03:47:27.353Z,96713.03
2022-11-16T03:49:55.159Z,96710.06
2022-11-16T03:52:23.251Z,96711.13
2022-11-16T03:54:51.091Z,96705.66
2022-11-16T03:57:19.291Z,96708.69
2022-11-16T03:59:47.399Z,96702.78
2022-11-16T04:02:15.247Z,96700.84
2022-11-16T04:05:01.686Z,96704.06
2022-11-16T04:07:47.252Z,96698.44
2022-11-16T04:10:32.907Z,96705.44
2022-11-16T04:13:19.801Z,96697.31
2022-11-16T04:16:04.945Z,96702.97
2022-11-16T04:18:50.355Z,96711.34
2022-11-16T04:21:41.639Z,96722.09
2022-11-16T04:24:13.697Z,96735.03
2022-11-16T04:27:02.462Z,96731.78
2022-11-16T04:29:31.011Z,96733.72
2022-11-16T04:32:16.469Z,96729.09
2022-11-16T04:35:01.895Z,96742.59
2022-11-16T04:37:48.325Z,96739.38
2022-11-16T04:40:17.268Z,96741.53
2022-11-16T04:42:45.130Z,96749.59
2022-11-16T04:45:30.272Z,96749.59
2022-11-16T04:47:58.070Z,96756.59
2022-11-16T04:50:25.829Z,96754.19
2022-11-16T04:52:55.010Z,96757.69
2022-11-16T04:55:22.906Z,96759.84
2022-11-16T04:57:50.664Z,96749.09
2022-11-16T05:00:19.066Z,96755.56
2022-11-16T05:02:47.251Z,96752.59
2022-11-16T05:05:15.454Z,96758.47
2022-11-16T05:07:43.391Z,96752.81
2022-11-16T05:10:13.170Z,96749.31
2022-11-16T05:12:41.536Z,96750.94
2022-11-16T05:15:10.438Z,96749.84
2022-11-16T05:17:38.363Z,96755.75
2022-11-16T05:20:24.667Z,96748.78
2022-11-16T05:22:55.930Z,96738.28
2022-11-16T05:25:25.462Z,96743.66
2022-11-16T05:27:53.502Z,96744.75
2022-11-16T05:30:21.394Z,96735.88
2022-11-16T05:32:49.210Z,96743.94
2022-11-16T05:35:17.102Z,96738.81
2022-11-16T05:37:44.991Z,96742.06
2022-11-16T05:40:13.442Z,96754.19
2022-11-16T05:42:42.732Z,96759.00
2022-11-16T05:45:11.704Z,96754.72
2022-11-16T05:47:39.716Z,96761.47
2022-11-16T05:50:08.931Z,96762.53
2022-11-16T05:52:36.767Z,96758.53
2022-11-16T05:55:05.071Z,96755.56
2022-11-16T05:57:32.871Z,96757.16
2022-11-16T06:00:02.171Z,96758.81
2022-11-16T06:02:33.752Z,96756.63
2022-11-16T06:05:02.129Z,96745.06
2022-11-16T06:07:30.113Z,96756.13
2022-11-16T06:09:57.967Z,96751.56
2022-11-16T06:12:25.816Z,96758.28
2022-11-16T06:14:53.610Z,96754.25
2022-11-16T06:17:22.774Z,96755.88
2022-11-16T06:19:50.665Z,96755.91
2022-11-16T06:22:18.576Z,96747.84
2022-11-16T06:24:46.805Z,96755.41
2022-11-16T06:27:14.661Z,96754.09
2022-11-16T06:29:42.543Z,96770.78
2022-11-16T06:32:10.367Z,96767.28
2022-11-16T06:34:39.601Z,96768.09
2022-11-16T06:37:07.445Z,96769.97
2022-11-16T06:39:35.254Z,96773.47
2022-11-16T06:42:03.137Z,96775.63
2022-11-16T06:44:30.951Z,96775.63
2022-11-16T06:46:59.240Z,96781.00
2022-11-16T06:49:27.036Z,96778.59
2022-11-16T06:51:56.212Z,96786.13
2022-11-16T06:54:24.179Z,96786.66
2022-11-16T06:56:52.412Z,96793.09
2022-11-16T06:59:20.238Z,96784.22
2022-11-16T07:01:48.196Z,96788.53
2022-11-16T07:04:16.198Z,96790.94
2022-11-16T07:06:44.276Z,96802.50
2022-11-16T07:09:16.014Z,96798.72
2022-11-16T07:11:43.767Z,96804.09
2022-11-16T07:14:12.550Z,96811.09
2022-11-16T07:16:40.392Z,96814.28
2022-11-16T07:19:08.307Z,96816.69
2022-11-16T07:21:36.084Z,96821.00
2022-11-16T07:24:04.264Z,96821.78
2022-11-16T07:26:35.074Z,96834.97
2022-11-16T07:29:03.324Z,96838.47
2022-11-16T07:31:31.987Z,96834.69
2022-11-16T07:33:59.818Z,96839.00
2022-11-16T07:36:27.927Z,96843.00
2022-11-16T07:38:55.828Z,96841.66
2022-11-16T07:41:23.963Z,96842.97
2022-11-16T07:43:53.549Z,96848.31
2022-11-16T07:46:47.524Z,96850.47
2022-11-16T07:49:14.627Z,96851.50
2022-11-16T07:51:42.637Z,96849.34
2022-11-16T07:54:12.851Z,96851.19
2022-11-16T07:56:41.082Z,96844.44
2022-11-16T07:59:12.929Z,96853.28
2022-11-16T08:01:40.786Z,96858.91
2022-11-16T08:04:08.675Z,96855.09
2022-11-16T08:06:36.516Z,96863.16
2022-11-16T08:09:04.511Z,96863.09
2022-11-16T08:11:32.410Z,96859.56
2022-11-16T08:14:00.338Z,96866.00
2022-11-16T08:16:29.560Z,96870.50
2022-11-16T08:18:57.728Z,96863.47
2022-11-16T08:21:25.716Z,96868.56
2022-11-16T08:23:58.187Z,96861.81
2022-11-16T08:26:27.123Z,96870.66
2022-11-16T08:28:56.601Z,96866.59
2022-11-16T08:31:27.596Z,96869.56
2022-11-16T08:33:57.174Z,96873.06
2022-11-16T08:36:25.000Z,96872.47
2022-11-16T08:38:53.949Z,96869.50
2022-11-16T08:41:22.651Z,96873.50
2022-11-16T08:43:53.371Z,96874.03
2022-11-16T08:46:21.938Z,96871.81
2022-11-16T08:48:50.038Z,96876.84
2022-11-16T08:51:20.521Z,96878.41
2022-11-16T08:53:49.441Z,96867.28
2022-11-16T08:56:19.457Z,96883.41
2022-11-16T08:58:50.262Z,96879.09
2022-11-16T09:01:22.921Z,96879.63
2022-11-16T09:03:51.323Z,96889.03
2022-11-16T09:06:20.861Z,96886.31
2022-11-16T09:08:49.946Z,96885.81
2022-11-16T09:11:20.994Z,96895.50
2022-11-16T09:13:50.402Z,96898.91
2022-11-16T09:16:20.938Z,96893.53
2022-11-16T09:18:49.929Z,96897.03
2022-11-16T09:21:20.584Z,96893.69
2022-11-16T09:23:48.735Z,96901.84
2022-11-16T09:26:18.990Z,96895.38
2022-11-16T09:28:47.202Z,96896.91
2022-11-16T09:31:18.964Z,96884.13
2022-11-16T09:33:50.980Z,96890.34
2022-11-16T09:36:20.801Z,96892.47
2022-11-16T09:42:03.454Z,96887.91
2022-11-16T09:44:53.212Z,96891.25
2022-11-16T09:47:23.247Z,96890.59
2022-11-16T09:49:59.760Z,96880.91
2022-11-16T09:52:35.659Z,96882.50
2022-11-16T09:55:16.626Z,96885.72
2022-11-16T09:57:46.301Z,96882.28
2022-11-16T10:00:19.544Z,96885.94
2022-11-16T10:03:00.855Z,96887.38
2022-11-16T10:05:33.855Z,96895.34
2022-11-16T10:08:13.447Z,96907.09
2022-11-16T10:10:55.580Z,96898.41
2022-11-16T10:13:38.866Z,96890.28
2022-11-16T10:16:14.820Z,96895.56
2022-11-16T10:18:56.980Z,96887.31
2022-11-16T10:21:42.768Z,96881.78
2022-11-16T10:24:25.707Z,96885.56
2022-11-16T10:27:03.854Z,96885.63
2022-11-16T10:29:46.500Z,96884.41
2022-11-16T10:32:26.072Z,96888.47
2022-11-16T10:34:56.318Z,96879.66
2022-11-16T10:37:29.963Z,96879.47
2022-11-16T10:39:59.533Z,96879.53
2022-11-16T10:42:33.439Z,96876.31
2022-11-16T10:45:07.527Z,96872.81
2022-11-16T10:47:42.617Z,96865.97
2022-11-16T10:50:31.796Z,96862.00
2022-11-16T10:52:59.858Z,96855.50
2022-11-16T10:55:30.100Z,96852.22
2022-11-16T10:58:00.284Z,96850.59
2022-11-16T11:00:36.188Z,96847.91
2022-11-16T11:03:04.099Z,96845.50
2022-11-16T11:05:32.464Z,96843.75
2022-11-16T11:08:06.105Z,96846.66
2022-11-16T11:10:37.325Z,96840.59
2022-11-16T11:13:26.337Z,96843.28
2022-11-16T11:16:14.915Z,96837.09
2022-11-16T11:18:42.952Z,96836.00
2022-11-16T11:21:18.642Z,96837.09
2022-11-16T11:23:48.938Z,96834.59
2022-11-16T11:26:36.464Z,96834.31
2022-11-16T11:29:24.039Z,96840.81
2022-11-16T11:31:54.226Z,96828.19
2022-11-16T11:34:24.756Z,96825.06
2022-11-16T11:36:56.284Z,96824.03
2022-11-16T11:39:31.507Z,96822.94
2022-11-16T11:42:06.789Z,96823.75
2022-11-16T11:44:43.736Z,96828.84
2022-11-16T11:47:57.225Z,96835.13
2022-11-16T11:50:32.758Z,96827.91
2022-11-16T11:53:04.446Z,96825.56
2022-11-16T11:55:32.968Z,96831.78
2022-11-16T11:58:04.812Z,96828.06
2022-11-16T12:00:42.400Z,96820.25
2022-11-16T12:03:44.831Z,96820.34
2022-11-16T12:06:20.905Z,96821.75
2022-11-16T12:09:14.300Z,96809.13
2022-11-16T12:11:54.922Z,96812.13
2022-11-16T12:14:39.815Z,96813.72
2022-11-16T12:17:13.299Z,96818.31
2022-11-16T12:20:02.553Z,96807.53
2022-11-16T12:23:03.976Z,96810.50
2022-11-16T12:25:38.955Z,96800.53
2022-11-16T12:28:22.950Z,96809.78
2022-11-16T12:31:02.535Z,96800.09
2022-11-16T12:33:42.941Z,96797.69
2022-11-16T12:36:22.666Z,96794.53
2022-11-16T12:39:02.108Z,96798.03
2022-11-16T12:42:10.247Z,96794.47
2022-11-16T12:45:03.400Z,96796.94
2022-11-16T12:47:43.603Z,96791.50
2022-11-16T12:50:33.401Z,96794.50
2022-11-16T12:53:24.345Z,96795.88
2022-11-16T12:56:00.463Z,96790.69
2022-11-16T12:58:41.072Z,96790.22
2022-11-16T13:01:18.596Z,96787.91
2022-11-16T13:03:52.327Z,96777.09
2022-11-16T13:06:22.652Z,96783.38
2022-11-16T13:09:01.706Z,96780.19
2022-11-16T13:11:32.990Z,96777.31
2022-11-16T13:14:04.049Z,96783.78
2022-11-16T13:16:32.387Z,96780.34
2022-11-16T13:19:04.458Z,96769.59
2022-11-16T13:21:46.632Z,96764.16
2022-11-16T13:24:25.575Z,96773.41
2022-11-16T13:27:04.639Z,96767.75
2022-11-16T13:29:38.832Z,96764.94
2022-11-16T13:32:12.151Z,96761.81
2022-11-16T13:37:48.878Z,96751.72
2022-11-16T13:40:29.211Z,96755.13
2022-11-16T13:43:15.786Z,96753.09
2022-11-16T13:45:52.255Z,96754.56
2022-11-16T13:48:22.434Z,96751.59
2022-11-16T13:50:55.517Z,96743.78
2022-11-16T13:54:25.114Z,96746.03
2022-11-16T13:56:18.293Z,96744.22
2022-11-16T13:58:48.163Z,96746.03
2022-11-16T14:01:17.694Z,96740.66
2022-11-16T14:03:46.583Z,96739.66
2022-11-16T14:06:57.900Z,96747.03
2022-11-16T14:09:46.648Z,96745.41
2022-11-16T14:12:52.243Z,96747.34
2022-11-16T14:15:22.021Z,96744.34
2022-11-16T14:17:51.873Z,96741.03
2022-11-16T14:20:35.979Z,96737.81
2022-11-16T14:23:15.378Z,96741.56
2022-11-16T14:25:48.884Z,96731.75
2022-11-16T14:28:32.931Z,96735.03
2022-11-16T14:31:14.749Z,96732.00
2022-11-16T14:33:43.418Z,96731.88
2022-11-16T14:36:12.347Z,96726.69
2022-11-16T14:38:44.433Z,96722.78
2022-11-16T14:41:21.177Z,96717.38
2022-11-16T14:43:52.945Z,96714.59
2022-11-16T14:46:24.152Z,96708.69
2022-11-16T14:48:52.907Z,96700.97
2022-11-16T14:51:24.590Z,96706.16
2022-11-16T14:53:57.643Z,96705.97
2022-11-16T14:56:25.480Z,96694.06
2022-11-16T14:58:55.338Z,96696.84
2022-11-16T15:01:25.912Z,96699.13
2022-11-16T15:03:58.465Z,96692.22
2022-11-16T15:06:27.479Z,96700.13
2022-11-16T15:09:00.588Z,96694.00
2022-11-16T15:11:44.768Z,96698.19
2022-11-16T15:14:12.794Z,96699.69
2022-11-16T15:16:50.263Z,96690.16
2022-11-16T15:19:18.302Z,96697.31
2022-11-16T15:21:53.066Z,96706.06
2022-11-16T15:24:31.522Z,96698.44
2022-11-16T15:27:11.805Z,96691.28
2022-11-16T15:29:40.155Z,96690.34
2022-11-16T15:32:13.998Z,96695.53
2022-11-16T15:34:41.947Z,96691.81
2022-11-16T15:37:15.209Z,96684.91
2022-11-16T15:39:45.083Z,96696.28
2022-11-16T15:42:16.815Z,96691.47
2022-11-16T15:44:45.352Z,96697.16
2022-11-16T15:47:15.062Z,96695.81
2022-11-16T15:49:44.139Z,96688.28
2022-11-16T15:52:12.035Z,96684.88
2022-11-16T15:54:53.744Z,96675.19
2022-11-16T15:57:24.801Z,96680.06
2022-11-16T15:59:55.656Z,96680.34
2022-11-16T16:02:27.828Z,96679.91
2022-11-16T16:04:55.709Z,96684.25
2022-11-16T16:07:39.903Z,96682.38
2022-11-16T16:10:23.738Z,96681.84
2022-11-16T16:12:56.176Z,96681.91
2022-11-16T16:15:25.829Z,96686.50
2022-11-16T16:17:55.198Z,96680.31
2022-11-16T16:20:25.415Z,96679.28
2022-11-16T16:22:54.250Z,96668.28
2022-11-16T16:25:31.230Z,96675.03
2022-11-16T16:28:00.798Z,96672.34
2022-11-16T16:30:30.507Z,96677.75
2022-11-16T16:32:58.743Z,96686.63
2022-11-16T16:35:27.327Z,96666.97
2022-11-16T16:37:59.352Z,96668.84
2022-11-16T16:40:27.476Z,96677.50
2022-11-16T16:42:56.692Z,96667.88
2022-11-16T16:45:33.863Z,96678.16
2022-11-16T16:48:01.813Z,96688.88
2022-11-16T16:50:29.960Z,96665.41
2022-11-16T16:52:57.788Z,96661.94
2022-11-16T16:55:26.002Z,96660.91
2022-11-16T16:57:54.100Z,96655.78
2022-11-16T17:00:22.130Z,96657.16
2022-11-16T17:02:51.816Z,96656.16
2022-11-16T17:05:19.647Z,96658.84
2022-11-16T17:07:47.560Z,96667.22
2022-11-16T17:10:15.380Z,96655.44
2022-11-16T17:12:43.204Z,96655.78
2022-11-16T17:15:16.460Z,96654.75
2022-11-16T17:17:49.203Z,96653.47
2022-11-16T17:20:18.619Z,96650.31
2022-11-16T17:22:46.448Z,96654.16
2022-11-16T17:25:14.965Z,96649.34
2022-11-16T17:27:42.800Z,96652.88
2022-11-16T17:30:11.864Z,96646.97
2022-11-16T17:32:39.937Z,96640.84
2022-11-16T17:35:08.226Z,96637.13
2022-11-16T17:37:37.610Z,96642.28
2022-11-16T17:40:06.835Z,96644.16
2022-11-16T17:42:35.681Z,96631.84
2022-11-16T17:45:06.036Z,96636.69
2022-11-16T17:47:34.532Z,96630.28
2022-11-16T17:50:03.535Z,96625.25
2022-11-16T17:52:31.652Z,96630.97
2022-11-16T17:55:00.931Z,96623.47
2022-11-16T17:57:28.779Z,96625.91
2022-11-16T17:59:58.648Z,96617.56
2022-11-16T18:02:26.489Z,96621.06
2022-11-16T18:04:54.370Z,96621.91
2022-11-16T18:07:22.242Z,96619.22
2022-11-16T18:09:50.803Z,96624.59
2022-11-16T18:12:19.988Z,96617.63
2022-11-16T18:15:13.485Z,96614.13
2022-11-16T18:17:36.421Z,96616.03
2022-11-16T18:20:05.081Z,96617.09
2022-11-16T18:22:32.902Z,96612.53
2022-11-16T18:25:00.998Z,96608.75
2022-11-16T18:27:30.198Z,96616.81
2022-11-16T18:29:58.067Z,96610.06
2022-11-16T18:32:25.853Z,96604.69
2022-11-16T18:34:54.184Z,96599.03
2022-11-16T18:37:22.012Z,96596.34
2022-11-16T18:39:49.857Z,96592.03
2022-11-16T18:42:17.664Z,96590.69
2022-11-16T18:44:48.074Z,96585.31
2022-11-16T18:47:15.881Z,96573.75
2022-11-16T18:49:43.705Z,96565.44
2022-11-16T18:52:11.720Z,96560.06
2022-11-16T18:54:39.602Z,96555.50
2022-11-16T18:57:07.763Z,96550.88
2022-11-16T18:59:35.600Z,96546.63
2022-11-16T19:02:04.868Z,96541.53
2022-11-16T19:04:32.732Z,96540.22
2022-11-16T19:07:00.673Z,96535.69
2022-11-16T19:09:28.625Z,96533.06
2022-11-16T19:11:56.451Z,96531.22
2022-11-16T19:14:25.403Z,96529.59
2022-11-16T19:16:57.065Z,96531.78
2022-11-16T19:19:27.832Z,96525.09
2022-11-16T19:21:57.279Z,96529.94
2022-11-16T19:24:25.544Z,96534.28
2022-11-16T19:26:53.762Z,96527.56
2022-11-16T19:29:23.912Z,96535.41
2022-11-16T19:31:51.995Z,96540.53
2022-11-16T19:34:20.594Z,96531.94
2022-11-16T19:36:52.118Z,96533.59
2022-11-16T19:39:20.003Z,96529.31
2022-11-16T19:41:48.003Z,96520.50
2022-11-16T19:44:16.075Z,96518.63
2022-11-16T19:46:45.142Z,96523.19
2022-11-16T19:49:19.647Z,96530.22
2022-11-16T19:51:49.776Z,96522.44
2022-11-16T19:54:20.585Z,96528.09
2022-11-16T19:56:54.654Z,96536.94
2022-11-16T19:59:36.917Z,96530.78
2022-11-16T20:02:07.845Z,96539.13
2022-11-16T20:04:36.019Z,96536.72
2022-11-16T20:07:05.625Z,96539.41
2022-11-16T20:09:36.656Z,96540.75
2022-11-16T20:12:07.032Z,96541.59
2022-11-16T20:14:35.303Z,96551.56
2022-11-16T20:17:08.854Z,96553.47
2022-11-16T20:19:47.983Z,96560.72
2022-11-16T20:22:18.657Z,96561.00
2022-11-16T20:24:49.128Z,96544.38
2022-11-16T20:27:17.958Z,96541.41
2022-11-16T20:29:47.416Z,96520.94
2022-11-16T20:32:16.781Z,96511.56
2022-11-16T20:34:44.847Z,96502.78
2022-11-16T20:37:12.679Z,96500.38
2022-11-16T20:39:42.376Z,96494.19
2022-11-16T20:42:10.510Z,96474.88
2022-11-16T20:44:39.080Z,96478.66
2022-11-16T20:47:07.341Z,96476.50
2022-11-16T20:49:35.762Z,96483.47
2022-11-16T20:52:04.084Z,96475.41
2022-11-16T20:54:32.192Z,96486.16
2022-11-16T20:57:04.136Z,96493.41
2022-11-16T20:59:31.996Z,96491.56
2022-11-16T21:01:59.882Z,96488.34
2022-11-16T21:04:27.700Z,96482.72
2022-11-16T21:06:55.685Z,96485.69
2022-11-16T21:09:23.894Z,96477.91
2022-11-16T21:12:08.962Z,96476.88
2022-11-16T21:14:38.251Z,96477.44
2022-11-16T21:17:06.353Z,96477.44
2022-11-16T21:19:34.243Z,96473.41
2022-11-16T21:22:02.096Z,96475.56
2022-11-16T21:24:31.692Z,96456.28
2022-11-16T21:26:59.538Z,96457.88
2022-11-16T21:29:28.199Z,96454.38
2022-11-16T21:31:57.426Z,96448.50
2022-11-16T21:34:27.809Z,96452.75
2022-11-16T21:36:55.695Z,96443.94
2022-11-16T21:39:23.511Z,96454.66
2022-11-16T21:41:51.399Z,96454.94
2022-11-16T21:44:19.229Z,96457.34
2022-11-16T21:46:47.299Z,96455.47
2022-11-16T21:49:16.528Z,96461.63
2022-11-16T21:51:44.313Z,96458.41
2022-11-16T21:54:12.102Z,96456.00
2022-11-16T21:56:39.900Z,96454.09
2022-11-16T21:59:07.680Z,96449.78
2022-11-16T22:01:59.369Z,96445.78
2022-11-16T22:04:45.987Z,96443.13
2022-11-16T22:07:32.528Z,96445.00
2022-11-16T22:10:00.502Z,96435.34
2022-11-16T22:12:28.543Z,96443.41
2022-11-16T22:14:56.986Z,96439.13
2022-11-16T22:17:24.799Z,96441.53
2022-11-16T22:19:54.342Z,96445.81
2022-11-16T22:22:22.480Z,96446.63
2022-11-16T22:24:50.352Z,96442.84
2022-11-16T22:27:20.227Z,96438.28
2022-11-16T22:29:48.204Z,96442.06
2022-11-16T22:32:16.052Z,96447.97
2022-11-16T22:34:43.970Z,96451.72
2022-11-16T22:37:13.158Z,96450.94
2022-11-16T22:39:41.175Z,96445.06
2022-11-16T22:42:08.951Z,96445.06
2022-11-16T22:44:36.783Z,96437.81
2022-11-16T22:47:04.984Z,96446.16
2022-11-16T22:49:33.021Z,96441.59
2022-11-16T22:52:00.954Z,96434.63
2022-11-16T22:54:31.076Z,96420.34
2022-11-16T22:56:59.053Z,96425.19
2022-11-16T22:59:26.856Z,96415.47
2022-11-16T23:01:54.827Z,96410.66
2022-11-16T23:04:22.691Z,96412.25
2022-11-16T23:06:50.639Z,96405.53
2022-11-16T23:09:18.434Z,96404.97
2022-11-16T23:12:04.803Z,96408.69
2022-11-16T23:14:49.975Z,96409.22
2022-11-16T23:17:17.804Z,96405.16
2022-11-16T23:20:02.956Z,96401.63
2022-11-16T23:22:48.173Z,96394.91
2022-11-16T23:25:33.037Z,96390.88
2022-11-16T23:28:06.458Z,96399.44
2022-11-16T23:30:34.570Z,96385.44
2022-11-16T23:33:02.440Z,96381.97
2022-11-16T23:35:30.374Z,96380.09
2022-11-16T23:37:59.294Z,96369.28
2022-11-16T23:40:28.980Z,96378.72
2022-11-16T23:43:14.950Z,96371.19
2022-11-16T23:45:45.129Z,96380.31
2022-11-16T23:48:15.670Z,96367.69
2022-11-16T23:50:44.455Z,96363.94
2022-11-16T23:53:13.483Z,96351.31
2022-11-16T23:55:41.389Z,96344.84
2022-11-16T23:58:14.251Z,96344.56
